createdAt,value
2023-04-07T00:00:27.983Z,71.58
2023-04-07T00:02:55.933Z,70.69
2023-04-07T00:05:23.214Z,70.93
2023-04-07T00:07:56.459Z,73.08
2023-04-07T00:10:25.100Z,70.48
2023-04-07T00:12:52.500Z,69.22
2023-04-07T00:15:19.904Z,68.93
2023-04-07T00:17:47.365Z,68.85
2023-04-07T00:20:14.590Z,69.12
2023-04-07T00:22:41.778Z,67.41
2023-04-07T00:25:09.414Z,67.38
2023-04-07T00:27:36.655Z,67.45
2023-04-07T00:30:04.268Z,67.73
2023-04-07T00:32:31.794Z,68.24
2023-04-07T00:35:00.155Z,67.47
2023-04-07T00:37:29.649Z,67.37
2023-04-07T00:39:58.127Z,71.00
2023-04-07T00:42:25.420Z,68.28
2023-04-07T00:44:52.599Z,69.51
2023-04-07T00:47:21.185Z,68.86
2023-04-07T00:49:48.369Z,73.49
2023-04-07T00:52:16.040Z,69.43
2023-04-07T00:54:43.617Z,67.98
2023-04-07T00:57:10.961Z,67.65
2023-04-07T00:59:38.510Z,68.11
2023-04-07T01:02:09.512Z,67.58
2023-04-07T01:04:56.453Z,68.00
2023-04-07T01:07:27.828Z,69.56
2023-04-07T01:10:00.607Z,67.56
2023-04-07T01:12:37.630Z,68.65
2023-04-07T01:15:06.328Z,69.48
2023-04-07T01:17:34.932Z,70.63
2023-04-07T01:20:08.056Z,69.36
2023-04-07T01:22:40.304Z,68.95
2023-04-07T01:25:10.669Z,68.31
2023-04-07T01:27:55.579Z,68.70
2023-04-07T01:30:22.803Z,67.99
2023-04-07T01:32:51.627Z,68.22
2023-04-07T01:35:19.117Z,66.59
2023-04-07T01:37:48.817Z,66.24
2023-04-07T01:40:16.380Z,66.79
2023-04-07T01:42:43.549Z,65.76
2023-04-07T01:45:10.749Z,65.88
2023-04-07T01:47:38.363Z,65.85
2023-04-07T01:50:06.036Z,65.83
2023-04-07T01:52:33.643Z,65.45
2023-04-07T01:55:01.147Z,66.21
2023-04-07T01:57:28.978Z,66.29
2023-04-07T01:59:57.037Z,66.84
2023-04-07T02:02:25.154Z,67.29
2023-04-07T02:04:54.956Z,65.63
2023-04-07T02:07:24.312Z,66.72
2023-04-07T02:09:51.730Z,65.74
2023-04-07T02:12:19.213Z,65.83
2023-04-07T02:14:48.354Z,65.79
2023-04-07T02:17:15.917Z,66.23
2023-04-07T02:19:43.870Z,66.09
2023-04-07T02:22:11.205Z,65.72
2023-04-07T02:24:41.231Z,64.97
2023-04-07T02:27:09.020Z,67.05
2023-04-07T02:29:36.475Z,64.56
2023-04-07T02:32:03.766Z,64.79
2023-04-07T02:34:31.134Z,64.79
2023-04-07T02:36:58.570Z,64.78
2023-04-07T02:39:27.640Z,64.19
2023-04-07T02:41:54.813Z,65.64
2023-04-07T02:44:22.297Z,67.10
2023-04-07T02:46:49.422Z,69.03
2023-04-07T02:49:16.968Z,69.55
2023-04-07T02:51:44.425Z,69.73
2023-04-07T02:54:11.725Z,71.28
2023-04-07T02:56:38.975Z,72.78
2023-04-07T02:59:06.510Z,74.53
2023-04-07T03:01:36.534Z,77.11
2023-04-07T03:04:05.350Z,76.63
2023-04-07T03:06:33.490Z,73.35
2023-04-07T03:09:01.138Z,73.29
2023-04-07T03:11:28.442Z,72.93
2023-04-07T03:13:56.798Z,73.99
2023-04-07T03:16:24.400Z,75.28
2023-04-07T03:18:52.407Z,79.69
2023-04-07T03:21:21.148Z,81.01
2023-04-07T03:23:48.310Z,77.06
2023-04-07T03:26:15.594Z,75.61
2023-04-07T03:28:43.328Z,74.58
2023-04-07T03:31:10.746Z,73.60
2023-04-07T03:33:38.003Z,74.93
2023-04-07T03:36:05.699Z,72.87
2023-04-07T03:38:32.904Z,75.88
2023-04-07T03:41:00.829Z,72.98
2023-04-07T03:43:28.720Z,73.11
2023-04-07T03:45:56.073Z,76.38
2023-04-07T03:48:23.527Z,76.42
2023-04-07T03:50:51.964Z,73.01
2023-04-07T03:53:19.732Z,73.00
2023-04-07T03:55:48.413Z,73.16
2023-04-07T03:58:17.097Z,73.57
2023-04-07T04:00:46.118Z,74.73
2023-04-07T04:03:13.740Z,73.95
2023-04-07T04:05:42.050Z,75.31
2023-04-07T04:08:10.727Z,73.20
2023-04-07T04:10:38.321Z,73.07
2023-04-07T04:13:07.935Z,71.99
2023-04-07T04:15:35.371Z,70.94
2023-04-07T04:18:03.867Z,73.58
2023-04-07T04:20:31.330Z,77.03
2023-04-07T04:22:58.487Z,73.00
2023-04-07T04:25:26.620Z,72.12
2023-04-07T04:27:54.140Z,71.47
2023-04-07T04:30:21.617Z,71.12
2023-04-07T04:32:49.887Z,70.55
2023-04-07T04:35:18.438Z,70.65
2023-04-07T04:37:46.710Z,71.06
2023-04-07T04:40:14.736Z,71.65
2023-04-07T04:42:42.961Z,72.85
2023-04-07T04:45:11.166Z,72.44
2023-04-07T04:47:39.233Z,72.13
2023-04-07T04:50:07.096Z,71.43
2023-04-07T04:52:34.718Z,72.11
2023-04-07T04:55:02.284Z,72.42
2023-04-07T04:57:29.645Z,72.06
2023-04-07T04:59:58.899Z,73.12
2023-04-07T05:02:26.819Z,73.32
2023-04-07T05:04:54.569Z,73.22
2023-04-07T05:07:22.235Z,73.79
2023-04-07T05:09:49.761Z,73.72
2023-04-07T05:12:17.811Z,74.57
2023-04-07T05:14:46.423Z,75.24
2023-04-07T05:17:13.930Z,74.35
2023-04-07T05:19:41.373Z,72.82
2023-04-07T05:22:09.765Z,74.05
2023-04-07T05:24:39.600Z,74.17
2023-04-07T05:27:07.015Z,76.10
2023-04-07T05:29:34.361Z,74.84
2023-04-07T05:32:02.397Z,74.58
2023-04-07T05:34:30.586Z,74.55
2023-04-07T05:36:58.094Z,73.44
2023-04-07T05:39:25.894Z,73.59
2023-04-07T05:41:53.336Z,72.49
2023-04-07T05:44:21.323Z,72.08
2023-04-07T05:46:49.732Z,73.43
2023-04-07T05:49:20.222Z,74.19
2023-04-07T05:51:49.327Z,74.99
2023-04-07T05:54:17.438Z,75.77
2023-04-07T05:56:44.600Z,75.60
2023-04-07T05:59:12.661Z,74.79
2023-04-07T06:01:40.040Z,75.52
2023-04-07T06:04:08.733Z,74.88
2023-04-07T06:06:38.586Z,74.18
2023-04-07T06:09:07.746Z,74.22
2023-04-07T06:11:36.875Z,75.07
2023-04-07T06:14:04.158Z,74.66
2023-04-07T06:16:31.592Z,74.87
2023-04-07T06:19:01.084Z,74.30
2023-04-07T06:21:29.466Z,74.01
2023-04-07T06:23:56.647Z,73.62
2023-04-07T06:26:24.101Z,73.17
2023-04-07T06:28:52.059Z,73.55
2023-04-07T06:31:20.080Z,73.02
2023-04-07T06:33:48.567Z,72.39
2023-04-07T06:36:16.133Z,72.30
2023-04-07T06:38:43.344Z,75.15
2023-04-07T06:41:16.846Z,72.36
2023-04-07T06:43:44.917Z,71.03
2023-04-07T06:46:12.421Z,70.46
2023-04-07T06:48:40.029Z,70.90
2023-04-07T06:51:07.374Z,69.54
2023-04-07T06:53:34.957Z,69.87
2023-04-07T06:56:05.817Z,69.45
2023-04-07T06:58:33.330Z,70.98
2023-04-07T07:01:01.594Z,68.77
2023-04-07T07:03:29.699Z,67.36
2023-04-07T07:05:57.159Z,67.35
2023-04-07T07:08:25.292Z,66.57
2023-04-07T07:10:52.808Z,66.49
2023-04-07T07:13:20.916Z,67.54
2023-04-07T07:15:48.361Z,65.50
2023-04-07T07:18:15.907Z,65.56
2023-04-07T07:20:43.086Z,65.76
2023-04-07T07:23:10.890Z,63.52
2023-04-07T07:25:38.112Z,64.44
2023-04-07T07:28:05.334Z,64.86
2023-04-07T07:30:32.770Z,64.04
2023-04-07T07:33:01.256Z,63.73
2023-04-07T07:35:28.446Z,63.76
2023-04-07T07:37:55.897Z,64.16
2023-04-07T07:40:24.197Z,64.37
2023-04-07T07:42:51.447Z,65.55
2023-04-07T07:45:19.703Z,67.39
2023-04-07T07:47:47.007Z,66.77
2023-04-07T07:50:14.210Z,65.03
2023-04-07T07:52:41.876Z,64.89
2023-04-07T07:55:09.271Z,65.43
2023-04-07T07:57:36.816Z,66.79
2023-04-07T08:00:04.757Z,67.19
2023-04-07T08:02:40.411Z,66.14
2023-04-07T08:05:08.444Z,66.00
2023-04-07T08:07:35.816Z,66.29
2023-04-07T08:10:03.586Z,66.17
2023-04-07T08:12:31.225Z,66.96
2023-04-07T08:14:58.459Z,65.21
2023-04-07T08:17:26.270Z,66.21
2023-04-07T08:19:53.742Z,64.94
2023-04-07T08:22:21.229Z,65.19
2023-04-07T08:24:48.638Z,64.74
2023-04-07T08:27:16.061Z,65.09
2023-04-07T08:29:43.248Z,64.29
2023-04-07T08:32:10.811Z,64.77
2023-04-07T08:34:38.286Z,63.18
2023-04-07T08:37:05.557Z,62.79
2023-04-07T08:39:33.447Z,63.45
2023-04-07T08:42:01.129Z,62.16
2023-04-07T08:44:28.568Z,63.72
2023-04-07T08:46:56.222Z,64.45
2023-04-07T08:49:23.759Z,62.25
2023-04-07T08:51:51.018Z,63.75
2023-04-07T08:54:19.481Z,66.69
2023-04-07T08:56:47.108Z,67.34
2023-04-07T08:59:14.939Z,65.90
2023-04-07T09:01:42.395Z,64.93
2023-04-07T09:04:10.909Z,67.13
2023-04-07T09:06:38.431Z,65.78
2023-04-07T09:09:06.397Z,65.28
2023-04-07T09:11:38.749Z,67.28
2023-04-07T09:14:06.041Z,63.66
2023-04-07T09:16:33.660Z,61.88
2023-04-07T09:19:02.197Z,61.77
2023-04-07T09:21:47.006Z,61.32
2023-04-07T09:24:22.436Z,62.59
2023-04-07T09:26:49.745Z,64.50
2023-04-07T09:29:20.668Z,62.22
2023-04-07T09:31:52.098Z,63.65
2023-04-07T09:34:28.018Z,62.17
2023-04-07T09:36:55.734Z,62.50
2023-04-07T09:39:24.616Z,61.09
2023-04-07T09:41:52.148Z,66.30
2023-04-07T09:44:19.670Z,66.52
2023-04-07T09:46:53.477Z,68.13
2023-04-07T09:49:21.252Z,70.61
2023-04-07T09:52:09.075Z,72.00
2023-04-07T09:54:41.190Z,72.63
2023-04-07T09:57:09.432Z,67.40
2023-04-07T09:59:40.992Z,66.55
2023-04-07T10:02:08.831Z,65.36
2023-04-07T10:04:36.501Z,67.76
2023-04-07T10:07:04.367Z,66.42
2023-04-07T10:09:31.851Z,68.90
2023-04-07T10:11:59.929Z,70.35
2023-04-07T10:14:28.440Z,69.60
2023-04-07T10:16:55.778Z,71.48
2023-04-07T10:19:23.459Z,70.13
2023-04-07T10:21:51.699Z,67.13
2023-04-07T10:24:48.330Z,64.12
2023-04-07T10:27:17.134Z,66.84
2023-04-07T10:29:45.310Z,64.69
2023-04-07T10:32:12.518Z,62.01
2023-04-07T10:34:55.097Z,60.67
2023-04-07T10:37:22.907Z,63.92
2023-04-07T10:39:51.532Z,66.43
2023-04-07T10:42:37.527Z,61.07
2023-04-07T10:45:05.882Z,60.97
2023-04-07T10:47:33.214Z,62.98
2023-04-07T10:50:12.746Z,61.93
2023-04-07T10:52:40.221Z,60.97
2023-04-07T10:55:26.196Z,60.95
2023-04-07T10:58:12.475Z,59.65
2023-04-07T11:00:39.620Z,57.79
2023-04-07T11:03:11.730Z,63.49
2023-04-07T11:05:40.907Z,65.20
2023-04-07T11:08:08.383Z,67.18
2023-04-07T11:10:35.867Z,65.95
2023-04-07T11:13:04.243Z,62.74
2023-04-07T11:15:31.740Z,59.77
2023-04-07T11:18:11.973Z,57.13
2023-04-07T11:20:45.551Z,55.91
2023-04-07T11:23:14.111Z,56.83
2023-04-07T11:25:42.337Z,61.78
2023-04-07T11:28:10.472Z,58.04
2023-04-07T11:30:37.701Z,56.95
2023-04-07T11:33:05.164Z,55.96
2023-04-07T11:35:32.408Z,55.31
2023-04-07T11:38:00.863Z,56.59
2023-04-07T11:40:35.553Z,55.62
2023-04-07T11:43:03.531Z,59.35
2023-04-07T11:45:31.011Z,61.80
2023-04-07T11:47:58.209Z,63.00
2023-04-07T11:50:38.382Z,60.66
2023-04-07T11:53:05.920Z,58.74
2023-04-07T11:55:33.358Z,61.26
2023-04-07T11:58:10.215Z,60.63
2023-04-07T12:00:53.333Z,61.72
2023-04-07T12:03:21.089Z,60.82
2023-04-07T12:05:48.493Z,60.07
2023-04-07T12:08:16.745Z,62.79
2023-04-07T12:10:45.839Z,64.34
2023-04-07T12:13:13.795Z,62.98
2023-04-07T12:15:41.022Z,62.17
2023-04-07T12:18:08.482Z,59.98
2023-04-07T12:20:37.485Z,59.24
2023-04-07T12:23:05.026Z,59.26
2023-04-07T12:25:32.536Z,58.39
2023-04-07T12:27:59.703Z,57.71
2023-04-07T12:30:26.878Z,57.13
2023-04-07T12:32:54.591Z,57.49
2023-04-07T12:35:21.982Z,58.21
2023-04-07T12:37:50.183Z,58.04
2023-04-07T12:40:17.955Z,56.08
2023-04-07T12:42:45.136Z,56.17
2023-04-07T12:45:12.271Z,56.33
2023-04-07T12:47:39.711Z,60.46
2023-04-07T12:50:07.335Z,61.21
2023-04-07T12:52:34.539Z,59.25
2023-04-07T12:55:02.010Z,58.32
2023-04-07T12:57:29.217Z,59.08
2023-04-07T12:59:56.746Z,56.67
2023-04-07T13:02:24.796Z,55.81
2023-04-07T13:04:52.268Z,60.61
2023-04-07T13:07:19.917Z,57.65
2023-04-07T13:09:47.420Z,56.29
2023-04-07T13:12:14.586Z,54.78
2023-04-07T13:14:52.858Z,54.85
2023-04-07T13:17:24.841Z,56.54
2023-04-07T13:19:52.593Z,60.92
2023-04-07T13:22:22.185Z,61.85
2023-04-07T13:24:51.896Z,58.49
2023-04-07T13:27:19.062Z,56.06
2023-04-07T13:29:46.273Z,56.50
2023-04-07T13:32:14.901Z,55.82
2023-04-07T13:34:42.276Z,58.03
2023-04-07T13:37:09.579Z,60.79
2023-04-07T13:39:37.029Z,60.84
2023-04-07T13:42:05.072Z,61.89
2023-04-07T13:44:32.989Z,61.30
2023-04-07T13:47:00.702Z,61.03
2023-04-07T13:49:28.083Z,61.32
2023-04-07T13:51:55.590Z,62.44
2023-04-07T13:54:23.990Z,62.31
2023-04-07T13:56:51.489Z,61.83
2023-04-07T13:59:19.414Z,61.93
2023-04-07T14:01:47.461Z,60.80
2023-04-07T14:04:15.290Z,59.25
2023-04-07T14:06:42.752Z,59.93
2023-04-07T14:09:09.959Z,59.32
2023-04-07T14:11:37.491Z,58.22
2023-04-07T14:14:04.837Z,57.94
2023-04-07T14:16:32.222Z,58.14
2023-04-07T14:18:59.706Z,57.38
2023-04-07T14:21:27.906Z,56.63
2023-04-07T14:23:55.373Z,56.84
2023-04-07T14:26:23.042Z,56.67
2023-04-07T14:28:50.351Z,56.48
2023-04-07T14:31:17.832Z,56.92
2023-04-07T14:33:45.712Z,56.70
2023-04-07T14:36:17.389Z,56.03
2023-04-07T14:38:44.765Z,56.57
2023-04-07T14:41:12.608Z,56.50
2023-04-07T14:43:40.286Z,56.93
2023-04-07T14:46:07.565Z,56.58
2023-04-07T14:48:35.022Z,57.53
2023-04-07T14:51:09.204Z,57.31
2023-04-07T14:53:37.566Z,57.22
2023-04-07T14:56:06.018Z,56.91
2023-04-07T14:58:33.322Z,57.81
2023-04-07T15:01:00.753Z,57.90
2023-04-07T15:03:28.102Z,56.40
2023-04-07T15:05:55.421Z,58.06
2023-04-07T15:08:22.958Z,57.01
2023-04-07T15:10:50.160Z,57.01
2023-04-07T15:13:17.365Z,57.61
2023-04-07T15:15:44.913Z,58.23
2023-04-07T15:18:12.159Z,59.17
2023-04-07T15:20:39.356Z,58.71
2023-04-07T15:23:06.864Z,58.17
2023-04-07T15:25:34.069Z,59.30
2023-04-07T15:28:01.359Z,59.07
2023-04-07T15:30:34.189Z,60.11
2023-04-07T15:33:05.658Z,61.54
2023-04-07T15:35:33.178Z,63.71
2023-04-07T15:38:00.348Z,63.16
2023-04-07T15:40:27.541Z,62.35
2023-04-07T15:42:55.008Z,62.38
2023-04-07T15:45:22.225Z,62.99
2023-04-07T15:47:49.526Z,63.61
2023-04-07T15:50:17.107Z,64.26
2023-04-07T15:52:44.291Z,61.35
2023-04-07T15:55:11.634Z,61.80
2023-04-07T15:57:39.089Z,63.86
2023-04-07T16:00:06.860Z,63.14
2023-04-07T16:02:36.156Z,61.59
2023-04-07T16:05:03.488Z,62.68
2023-04-07T16:07:30.721Z,63.86
2023-04-07T16:09:58.136Z,64.03
2023-04-07T16:12:25.536Z,66.48
2023-04-07T16:14:52.840Z,67.60
2023-04-07T16:17:20.396Z,67.12
2023-04-07T16:19:47.637Z,66.49
2023-04-07T16:22:14.801Z,65.28
2023-04-07T16:24:42.443Z,63.41
2023-04-07T16:27:09.625Z,66.00
2023-04-07T16:29:36.769Z,64.86
2023-04-07T16:32:04.599Z,63.44
2023-04-07T16:34:32.094Z,63.05
2023-04-07T16:36:59.288Z,61.88
2023-04-07T16:39:28.965Z,62.62
2023-04-07T16:41:57.118Z,63.39
2023-04-07T16:44:24.296Z,64.50
2023-04-07T16:46:52.929Z,63.07
2023-04-07T16:49:20.230Z,63.16
2023-04-07T16:51:47.414Z,62.32
2023-04-07T16:54:14.906Z,61.59
2023-04-07T16:56:42.071Z,63.00
2023-04-07T16:59:09.281Z,62.23
2023-04-07T17:01:41.465Z,61.10
2023-04-07T17:04:09.438Z,61.84
2023-04-07T17:06:37.114Z,61.87
2023-04-07T17:09:04.319Z,62.70
2023-04-07T17:11:31.493Z,62.62
2023-04-07T17:13:58.977Z,66.01
2023-04-07T17:16:26.306Z,63.65
2023-04-07T17:18:54.585Z,62.71
2023-04-07T17:21:22.090Z,62.10
2023-04-07T17:23:49.500Z,63.43
2023-04-07T17:26:16.943Z,62.27
2023-04-07T17:28:45.919Z,62.05
2023-04-07T17:31:13.814Z,61.67
2023-04-07T17:33:41.058Z,62.21
2023-04-07T17:36:08.628Z,61.57
2023-04-07T17:38:35.869Z,61.65
2023-04-07T17:41:03.272Z,61.50
2023-04-07T17:43:30.768Z,61.88
2023-04-07T17:45:58.017Z,61.91
2023-04-07T17:48:25.172Z,61.25
2023-04-07T17:50:52.655Z,61.92
2023-04-07T17:53:21.198Z,62.00
2023-04-07T17:55:49.533Z,61.37
2023-04-07T17:58:17.304Z,61.39
2023-04-07T18:00:44.451Z,61.91
2023-04-07T18:03:14.309Z,61.96
2023-04-07T18:05:45.067Z,62.57
2023-04-07T18:08:12.933Z,63.46
2023-04-07T18:10:40.246Z,64.19
2023-04-07T18:13:07.423Z,63.83
2023-04-07T18:15:35.069Z,63.10
2023-04-07T18:18:02.463Z,62.58
2023-04-07T18:20:29.713Z,63.67
2023-04-07T18:22:57.994Z,63.54
2023-04-07T18:25:25.673Z,64.92
2023-04-07T18:27:53.387Z,65.84
2023-04-07T18:30:21.419Z,66.88
2023-04-07T18:32:49.441Z,66.79
2023-04-07T18:35:16.904Z,67.50
2023-04-07T18:37:44.802Z,67.80
2023-04-07T18:40:12.208Z,67.66
2023-04-07T18:42:39.442Z,68.98
2023-04-07T18:45:07.420Z,69.95
2023-04-07T18:47:34.913Z,69.18
2023-04-07T18:50:02.224Z,69.50
2023-04-07T18:52:30.142Z,69.45
2023-04-07T18:54:58.082Z,70.39
2023-04-07T18:57:25.337Z,70.00
2023-04-07T18:59:53.275Z,69.61
2023-04-07T19:02:20.678Z,69.50
2023-04-07T19:04:49.390Z,69.44
2023-04-07T19:07:17.123Z,69.25
2023-04-07T19:09:44.632Z,68.71
2023-04-07T19:12:12.091Z,69.00
2023-04-07T19:14:39.632Z,67.82
2023-04-07T19:17:07.180Z,67.57
2023-04-07T19:19:34.334Z,69.32
2023-04-07T19:22:02.485Z,69.16
2023-04-07T19:24:29.740Z,69.83
2023-04-07T19:26:57.881Z,69.12
2023-04-07T19:29:25.481Z,69.35
2023-04-07T19:31:54.722Z,69.48
2023-04-07T19:34:21.948Z,69.63
2023-04-07T19:36:49.423Z,69.69
2023-04-07T19:39:16.642Z,70.15
2023-04-07T19:41:43.839Z,70.67
2023-04-07T19:44:11.561Z,70.70
2023-04-07T19:46:39.457Z,70.71
2023-04-07T19:49:06.762Z,70.41
2023-04-07T19:51:35.343Z,70.50
2023-04-07T19:54:02.725Z,70.20
2023-04-07T19:56:29.903Z,70.56
2023-04-07T19:58:57.317Z,70.05
2023-04-07T20:01:24.713Z,70.58
2023-04-07T20:03:52.327Z,71.10
2023-04-07T20:06:21.889Z,71.04
2023-04-07T20:08:50.856Z,72.35
2023-04-07T20:11:18.882Z,72.09
2023-04-07T20:13:47.182Z,71.95
2023-04-07T20:16:14.493Z,72.31
2023-04-07T20:18:41.985Z,72.19
2023-04-07T20:21:10.002Z,70.66
2023-04-07T20:23:37.898Z,71.61
2023-04-07T20:26:05.629Z,71.79
2023-04-07T20:28:32.828Z,71.20
2023-04-07T20:31:01.501Z,70.54
2023-04-07T20:33:29.771Z,71.81
2023-04-07T20:35:57.097Z,72.25
2023-04-07T20:38:25.081Z,71.32
2023-04-07T20:40:53.253Z,72.30
2023-04-07T20:43:22.067Z,72.20
2023-04-07T20:45:49.779Z,72.50
2023-04-07T20:48:18.399Z,73.19
2023-04-07T20:50:45.580Z,72.51
2023-04-07T20:53:13.513Z,73.80
2023-04-07T20:55:41.266Z,73.32
2023-04-07T20:58:08.442Z,72.79
2023-04-07T21:00:35.616Z,74.36
2023-04-07T21:03:03.302Z,75.61
2023-04-07T21:05:30.815Z,73.87
2023-04-07T21:07:58.047Z,74.20
2023-04-07T21:10:26.264Z,73.68
2023-04-07T21:12:53.417Z,74.84
2023-04-07T21:15:20.749Z,73.90
2023-04-07T21:17:48.210Z,74.97
2023-04-07T21:20:15.827Z,75.09
2023-04-07T21:22:43.167Z,74.84
2023-04-07T21:25:10.655Z,76.79
2023-04-07T21:27:38.977Z,75.82
2023-04-07T21:30:06.697Z,76.32
2023-04-07T21:32:34.369Z,77.03
2023-04-07T21:35:01.694Z,75.45
2023-04-07T21:37:28.878Z,76.66
2023-04-07T21:39:56.654Z,78.99
2023-04-07T21:42:23.803Z,79.64
2023-04-07T21:44:50.927Z,77.86
2023-04-07T21:47:18.389Z,77.53
2023-04-07T21:49:45.845Z,77.60
2023-04-07T21:52:13.006Z,77.35
2023-04-07T21:54:40.461Z,78.13
2023-04-07T21:57:07.801Z,77.60
2023-04-07T21:59:36.062Z,75.88
2023-04-07T22:02:04.651Z,75.86
2023-04-07T22:04:32.467Z,75.95
2023-04-07T22:07:00.756Z,75.66
2023-04-07T22:09:28.664Z,75.26
2023-04-07T22:11:56.371Z,76.67
2023-04-07T22:14:25.076Z,76.20
2023-04-07T22:16:52.553Z,76.35
2023-04-07T22:19:20.064Z,75.53
2023-04-07T22:21:49.391Z,74.98
2023-04-07T22:24:16.697Z,75.71
2023-04-07T22:26:44.143Z,77.08
2023-04-07T22:29:12.038Z,75.11
2023-04-07T22:31:39.219Z,75.45
2023-04-07T22:34:06.730Z,75.74
2023-04-07T22:36:34.381Z,76.08
2023-04-07T22:39:01.613Z,76.48
2023-04-07T22:41:29.099Z,77.05
2023-04-07T22:43:56.299Z,78.45
2023-04-07T22:46:23.499Z,77.75
2023-04-07T22:48:51.357Z,77.28
2023-04-07T22:51:18.887Z,76.61
2023-04-07T22:53:46.251Z,76.15
2023-04-07T22:56:13.684Z,75.74
2023-04-07T22:58:40.997Z,75.87
2023-04-07T23:01:08.222Z,76.33
2023-04-07T23:03:35.863Z,75.73
2023-04-07T23:06:03.146Z,75.11
2023-04-07T23:08:30.491Z,75.25
2023-04-07T23:10:57.907Z,75.79
2023-04-07T23:13:25.705Z,75.84
2023-04-07T23:15:52.955Z,74.39
2023-04-07T23:18:20.416Z,74.32
2023-04-07T23:20:53.413Z,73.12
2023-04-07T23:23:21.172Z,73.86
2023-04-07T23:25:48.377Z,75.46
2023-04-07T23:28:15.584Z,75.95
2023-04-07T23:30:43.017Z,74.60
2023-04-07T23:33:10.204Z,73.83
2023-04-07T23:35:37.430Z,74.36
2023-04-07T23:38:04.982Z,73.70
2023-04-07T23:40:32.126Z,73.65
2023-04-07T23:42:59.342Z,73.60
2023-04-07T23:45:26.819Z,74.94
2023-04-07T23:47:54.044Z,74.30
2023-04-07T23:50:21.278Z,75.06
2023-04-07T23:52:48.943Z,74.62
2023-04-07T23:55:16.364Z,74.25
2023-04-07T23:57:43.608Z,74.44
